Detall de PIREP

Printer-friendly versionPDF version

[2013/12/11 16:07:00]
Flight IATA:CT3124
Pilot Number:012
Company ICAO:CAT
Aircraft Type:MD11/E
PAX:0
Aircraft Registration:CARGO
Departing Airport: LFMP
Destination Airport: LEVC
Alternate Airport:LEPA
Online: VATSIM
Route:BGR UN975 BCN UM985 SOPET
Flight Level:F290
No Slew and time accel
No pause
Crash detect
Detect pilot in Cockpit between each 30 and 45 minutes
16:07 Zero fuel Weight: 442670 Lbs, Fuel Weight: 49892 Lbs
16:07 VATSIM:LFMP 111530Z 02003KT 350V070 9999 FEW020 13/05 Q1030 NOSIG
16:07 VATSIM:LEVC 111530Z 14006KT 9999 FEW035 OVC050 14/07 Q1032 NOSIG
16:07 VOICE CATALONIAN
16:08 Parking Brakes off
16:11 Take-off
16:11 Take off Weight: 491377 Lbs
16:11 Wind: 042º @ 003 Knots Heading: 328º
16:11 POS N42º 45´ 05´´ E002º 51´ 50´´
16:11 Gear Up: 201 Knots
16:11 Flaps:3 at 201 Knots
16:13 Flaps:2 at 217 Knots
16:13 Flaps:3 at 219 Knots
16:13 Flaps:2 at 220 Knots
16:13 Flaps:1 at 221 Knots
16:13 Flaps:0 at 246 Knots
16:23 TOC
16:23 Fuel Weight: 40009 Lb
16:26 Wind:207º@028 Knots Heading: 230º Ground Speed: 458 Knots Altitude 29524 ft
16:41 Wind:349º@004 Knots Heading: 227º Ground Speed: 485 Knots Altitude 29543 ft
16:42 TOD
16:42 Fuel Weight: 34145 Lb
16:53 Flaps:1 at 251 Knots
16:55 Flaps:2 at 229 Knots
16:55 Flaps:3 at 217 Knots
16:56 Wind:181º@015 Knots Heading: 229º Ground Speed: 229 Knots Altitude 8293 ft
16:57 Flaps:4 at 192 Knots
16:57 Flaps:3 at 191 Knots
16:57 Flaps:4 at 191 Knots
16:57 Flaps:5 at 192 Knots
16:57 Flaps:6 at 192 Knots
16:58 Gear Down: 195 Knots
16:58 Flaps:7 at 191 Knots
17:00 Flaps:6 at 193 Knots
17:00 Flaps:5 at 212 Knots
17:00 Flaps:6 at 212 Knots
17:00 Flaps:5 at 212 Knots
17:00 Flaps:6 at 212 Knots
17:01 Flaps:7 at 189 Knots
17:03 TouchDown:Rate -206 ft/min Speed: 155 Knots
17:03 VATSIM:LEVC 111630Z 14003KT 9999 FEW030 OVC046 14/08 Q1032 NOSIG
17:03 Land
17:03 Wind:137º@003 Knots
17:03 Heading: 114º
17:03 Flight Duration: 00:52
17:03 Landing Weight: 472512 Lbs
17:03 POS N39º 29´ 29´´ W000º 29´ 15´´
17:04 Parking brakes on
17:04 Block to Block Duration: 00:56
17:04 Final Fuel: 29772 Lbls
17:04 Spent Fuel: 20119 Lbls
17:04 Flight Length: 331 NM
17:04 TOD Land Length: 106 NM

Exportar CSV

Powered by Drupal - Modified by Danger4k